NY/NJ Local METAR Reports

 

KNYC - NYC/Central Park, NY, USA
Distance from Hoboken: NE 4mi, 7km
Updated: 01/21/2019 6:51am
Mostly cloudy
Mostly cloudy
 
Temperature: 5°F , -15°C
Dew Point: -9°F , -23°C
Humidity: 51%
Barometer: 29.97 inHg , 1014.9 hPa
Clouds: Mostly cloudy
Visibility: 10 miles , 16 km
Cloud details: Mostly cloudy 3700 ft
2019/01/21 11:51 KNYC 211151Z AUTO 10SM BKN037 M15/M23 A2997 RMK AO2 PRESRR SLP143 70017 T11501228 11106 21150 53022 $
KEWR - Newark, NJ, USA
Distance from Hoboken: WSW 8mi, 13km
Updated: 01/21/2019 6:51am
Mostly cloudy
Mostly cloudy
 Wind from WNW
Wind: WNW 25 mph , 41 km/h, Gust: 33 mph , 54 km/h
Temperature: 5°F , -15°C
Wind Chill: -17°F , -27°C
Dew Point: -11°F , -24°C
Humidity: 46%
Barometer: 29.99 inHg , 1015.6 hPa
Clouds: Mostly cloudy
Visibility: 10 miles , 16 km
Cloud details: Mostly cloudy 3900 ft
2019/01/21 11:51 KEWR 211151Z 30022G29KT 10SM BKN039 M15/M24 A2999 RMK AO2 PK WND 28035/1138 SLP153 70018 T11501239 11111 21150 53030 $
 
KLGA - NYC/La Guardia, NY, USA
Distance from Hoboken: ENE 8mi, 13km
Updated: 01/21/2019 6:51am
Mostly cloudy
Mostly cloudy
 Wind from WNW
Wind: WNW 26 mph , 43 km/h, Gust: 35 mph , 56 km/h
Temperature: 7°F , -14°C
Wind Chill: -15°F , -26°C
Dew Point: -6°F , -21°C
Humidity: 56%
Barometer: 29.95 inHg , 1014.2 hPa
Clouds: Mostly cloudy
Visibility: 10 miles , 16 km
Cloud details: Mostly cloudy 3500 ft
2019/01/21 11:51 KLGA 211151Z 30023G30KT 10SM BKN035 M14/M21 A2995 RMK AO2 PK WND 32031/1104 SLP142 70020 T11391206 11094 21139 53027 $
KTEB - Teterboro, NJ, USA
Distance from Hoboken: N 9mi, 14km
Updated: 01/21/2019 6:51am
Overcast
Overcast
 Wind from NNW
Wind: NNW 16 mph , 26 km/h, Gust: 30 mph , 48 km/h
Temperature: 5°F , -15°C
Wind Chill: -14°F , -26°C
Dew Point: -9°F , -23°C
Humidity: 51%
Barometer: 29.97 inHg , 1014.9 hPa
Clouds: Overcast
Visibility: 10 miles , 16 km
Cloud details: Overcast 3800 ft
2019/01/21 11:51 KTEB 211151Z 33014G26KT 10SM OVC038 M15/M23 A2997 RMK AO2 PK WND 29027/1133 SLP148 60000 70020 T11501228 11106 21150 53029 $
 
KJFK - NYC/Jfk Arpt, NY, USA
Distance from Hoboken: ESE 16mi, 25km
Updated: 01/21/2019 6:51am
Partly cloudy
Partly cloudy
 Wind from WNW
Wind: WNW 26 mph , 43 km/h, Gust: 37 mph , 59 km/h
Temperature: 7°F , -14°C
Wind Chill: -15°F , -26°C
Dew Point: -8°F , -22°C
Humidity: 51%
Barometer: 29.96 inHg , 1014.6 hPa
Clouds: Partly cloudy
Visibility: 10 miles , 16 km
Cloud details: Partly cloudy 3700 ft
2019/01/21 11:51 KJFK 211151Z 29023G32KT 10SM SCT037 M14/M22 A2996 RMK AO2 PK WND 29035/1114 SLP144 VIRGA SE-S 70031 T11441222 11100 21144 53027
KCDW - Caldwell, NJ, USA
Distance from Hoboken: NW 16mi, 26km
Updated: 01/21/2019 6:53am
Mostly cloudy
Mostly cloudy
 Wind from WNW
Wind: WNW 18 mph , 30 km/h, Gust: 29 mph , 46 km/h
Temperature: 1°F , -17°C
Wind Chill: -20°F , -29°C
Dew Point: -11°F , -24°C
Humidity: 55%
Barometer: 29.98 inHg , 1015.2 hPa
Clouds: Mostly cloudy
Visibility: 10 miles , 16 km
Cloud details: Mostly cloudy 3400 ft
Mostly cloudy 7500 ft
2019/01/21 11:53 KCDW 211153Z 30016G25KT 10SM BKN034 BKN075 M17/M24 A2998 RMK AO2 PK WND 31031/1135 SLP160 70008 T11671244 11122 21167 53026
 
KMMU - Morristown Muni, NJ, USA
Distance from Hoboken: W 20mi, 33km
Updated: 01/21/2019 6:45am
Mostly cloudy
Mostly cloudy
 Wind from NW
Wind: NW 21 mph , 33 km/h, Gust: 33 mph , 54 km/h
Temperature: 3°F , -16°C
Wind Chill: -18°F , -28°C
Dew Point: -8°F , -22°C
Humidity: 60%
Barometer: 29.98 inHg , 1015.2 hPa
Clouds: Mostly cloudy
Visibility: 10 miles , 16 km
Cloud details: Mostly cloudy 3500 ft
2019/01/21 11:45 KMMU 211145Z 31018G29KT 10SM BKN035 M16/M22 A2998
KHPN - White Plains, NY, USA
Distance from Hoboken: NE 28mi, 46km
Updated: 01/21/2019 6:56am
Partly cloudy
Partly cloudy
 Wind from WNW
Wind: WNW 24 mph , 39 km/h, Gust: 36 mph , 57 km/h
Temperature: 3°F , -16°C
Wind Chill: -20°F , -29°C
Dew Point: -8°F , -22°C
Humidity: 60%
Barometer: 29.86 inHg , 1011.2 hPa
Clouds: Partly cloudy
Visibility: 10 miles , 16 km
Cloud details: Partly cloudy 2600 ft
2019/01/21 11:56 KHPN 211156Z 29021G31KT 10SM SCT026 M16/M22 A2986 RMK AO2 PK WND 28033/1146 SLP127 60000 70016 T11611222 11122 21161 53020 $
 
KFRG - Farmingdale, NY, USA
Distance from Hoboken: E 32mi, 52km
Updated: 01/21/2019 6:53am
Few Clouds
Few Clouds
 Wind from WNW
Wind: WNW 15 mph , 24 km/h, Gust: 29 mph , 46 km/h
Temperature: 7°F , -14°C
Wind Chill: -10°F , -23°C
Dew Point: -8°F , -22°C
Humidity: 51%
Barometer: 29.91 inHg , 1012.9 hPa
Clouds: Few Clouds
Visibility: 10 miles , 16 km
Cloud details: Few Clouds 3000 ft
2019/01/21 11:53 KFRG 211153Z AUTO 29013G25KT 10SM FEW030 M14/M22 A2991 RMK AO2 PK WND 30029/1124 SLP128 70041 T11441217 11106 21144 53025 $
KSMQ - Somerville, NJ, USA
Distance from Hoboken: WSW 34mi, 55km
Updated: 01/21/2019 6:53am
Partly cloudy
Partly cloudy
 Wind from NW
Wind: NW 18 mph , 30 km/h, Gust: 29 mph , 46 km/h
Temperature: 5°F , -15°C
Wind Chill: -15°F , -26°C
Dew Point: -9°F , -23°C
Humidity: 51%
Barometer: 29.99 inHg , 1015.6 hPa
Clouds: Partly cloudy
Visibility: 10 miles , 16 km
Cloud details: Partly cloudy 4000 ft
2019/01/21 11:53 KSMQ 211153Z AUTO 31016G25KT 10SM SCT040 M15/M23 A2999 RMK AO2 PK WND 31031/1124 SLP162 70010 T11501228 11117 21150 53027
 
KBLM - Belmar/Farmdale, NJ, USA
Distance from Hoboken: S 40mi, 64km
Updated: 01/21/2019 6:56am
Clear
Clear
 Wind from WNW
Wind: WNW 18 mph , 30 km/h, Gust: 33 mph , 54 km/h
Temperature: 7°F , -14°C
Wind Chill: -12°F , -24°C
Dew Point: -8°F , -22°C
Humidity: 51%
Barometer: 29.98 inHg , 1015.2 hPa
Clouds: Clear
Visibility: 10 miles , 16 km
2019/01/21 11:56 KBLM 211156Z AUTO 29016G29KT 10SM CLR M14/M22 A2998 RMK AO2 PK WND 29035/1112 SLP157 70022 T11391222 11106 21139 53026 FZRANO
K12N - Andover, NJ, USA
Distance from Hoboken: WNW 41mi, 67km
Updated: 01/21/2019 6:54am

 Wind from W
Wind: W 9 mph , 15 km/h
Temperature: -0°F , -18°C
Wind Chill: -15°F , -26°C
Dew Point: -9°F , -23°C
Humidity: 65%
Barometer: 29.97 inHg , 1014.9 hPa
2019/01/21 11:54 K12N 211154Z AUTO 27008KT 220V320 M18/M23 A2997 RMK AO1 SLP173 70020 T11831233 11144 21183 53029
 
KFWN - Sussex, NJ, USA
Distance from Hoboken: NW 45mi, 72km
Updated: 01/21/2019 6:53am
Overcast
Overcast
 Wind from varies
Wind: varies 5 mph , 7 km/h, Gust: 18 mph , 30 km/h
Temperature: -0°F , -18°C
Wind Chill: -11°F , -24°C
Dew Point: -9°F , -23°C
Humidity: 65%
Barometer: 29.95 inHg , 1014.2 hPa
Clouds: Overcast
Visibility: 10 miles , 16 km
Cloud details: Overcast 3800 ft
2019/01/21 11:53 KFWN 211153Z AUTO VRB04G16KT 10SM OVC038 M18/M23 A2995 RMK AO2 SLP151 60000 70016 T11781233 11139 21178 53028 $
KISP - Islip, NY, USA
Distance from Hoboken: E 49mi, 79km
Updated: 01/21/2019 6:56am
Mostly cloudy
Mostly cloudy
 Wind from WNW
Wind: WNW 21 mph , 33 km/h, Gust: 31 mph , 50 km/h
Temperature: 9°F , -13°C
Wind Chill: -11°F , -24°C
Dew Point: -4°F , -20°C
Humidity: 56%
Barometer: 29.87 inHg , 1011.5 hPa
Clouds: Mostly cloudy
Visibility: 10 miles , 16 km
Cloud details: Mostly cloudy 3200 ft
2019/01/21 11:56 KISP 211156Z 30018G27KT 10SM BKN032 M13/M20 A2987 RMK AO2 PK WND 30029/1121 SLP117 70058 T11331200 11106 21139 51025 $